createdAt,value
2018-06-24T00:01:56.347Z,3.00
2018-06-24T00:04:29.582Z,5.47
2018-06-24T00:07:02.657Z,3.73
2018-06-24T00:09:35.838Z,2.60
2018-06-24T00:12:09.038Z,2.50
2018-06-24T00:14:42.207Z,2.87
2018-06-24T00:17:18.516Z,4.03
2018-06-24T00:19:51.815Z,3.67
2018-06-24T00:22:24.728Z,2.93
2018-06-24T00:24:57.905Z,3.37
2018-06-24T00:27:31.008Z,2.70
2018-06-24T00:30:04.039Z,3.63
2018-06-24T00:32:37.018Z,3.23
2018-06-24T00:35:10.289Z,2.60
2018-06-24T00:37:43.549Z,2.67
2018-06-24T00:40:17.390Z,3.00
2018-06-24T00:42:50.989Z,2.63
2018-06-24T00:45:24.367Z,2.50
2018-06-24T00:47:57.568Z,3.37
2018-06-24T00:50:32.487Z,4.60
2018-06-24T00:53:05.739Z,2.23
2018-06-24T00:55:39.050Z,2.73
2018-06-24T00:58:12.213Z,2.03
2018-06-24T01:00:45.406Z,3.93
2018-06-24T01:03:18.506Z,3.10
2018-06-24T01:05:51.587Z,2.20
2018-06-24T01:08:24.797Z,2.43
2018-06-24T01:10:57.760Z,2.87
2018-06-24T01:13:30.969Z,2.27
2018-06-24T01:16:04.063Z,2.37
2018-06-24T01:18:37.762Z,2.83
2018-06-24T01:21:11.020Z,2.83
2018-06-24T01:23:44.667Z,3.43
2018-06-24T01:26:17.762Z,2.73
2018-06-24T01:28:50.865Z,1.93
2018-06-24T01:31:23.905Z,2.20
2018-06-24T01:33:56.917Z,5.57
2018-06-24T01:36:31.105Z,2.30
2018-06-24T01:39:04.850Z,2.57
2018-06-24T01:41:37.940Z,3.23
2018-06-24T01:44:11.148Z,3.00
2018-06-24T01:46:44.340Z,2.00
2018-06-24T01:49:18.224Z,2.77
2018-06-24T01:51:51.371Z,2.37
2018-06-24T01:54:24.434Z,2.10
2018-06-24T01:56:57.579Z,2.10
2018-06-24T01:59:30.841Z,3.77
2018-06-24T02:02:04.152Z,2.37
2018-06-24T02:04:37.870Z,3.23
2018-06-24T02:07:11.003Z,2.93
2018-06-24T02:09:44.572Z,3.20
2018-06-24T02:12:17.561Z,2.53
2018-06-24T02:14:51.452Z,2.10
2018-06-24T02:17:24.444Z,2.80
2018-06-24T02:19:57.616Z,3.23
2018-06-24T02:22:31.635Z,2.40
2018-06-24T02:25:04.703Z,1.83
2018-06-24T02:27:37.778Z,2.03
2018-06-24T02:30:10.908Z,2.80
2018-06-24T02:32:43.947Z,2.27
2018-06-24T02:35:17.424Z,4.03
2018-06-24T02:37:50.367Z,2.50
2018-06-24T02:40:23.501Z,2.37
2018-06-24T02:42:56.466Z,2.27
2018-06-24T02:45:29.575Z,2.33
2018-06-24T02:48:02.782Z,5.17
2018-06-24T02:50:35.802Z,2.40
2018-06-24T02:53:08.810Z,2.97
2018-06-24T02:55:41.900Z,6.30
2018-06-24T02:58:14.949Z,2.10
2018-06-24T03:00:48.166Z,2.70
2018-06-24T03:03:21.467Z,2.90
2018-06-24T03:05:54.741Z,3.30
2018-06-24T03:08:29.662Z,3.97
2018-06-24T03:11:03.504Z,1.80
2018-06-24T03:13:36.734Z,1.87
2018-06-24T03:16:10.218Z,1.63
2018-06-24T03:18:44.507Z,2.30
2018-06-24T03:21:17.611Z,2.13
2018-06-24T03:23:51.266Z,3.00
2018-06-24T03:26:25.393Z,1.87
2018-06-24T03:28:58.932Z,2.30
2018-06-24T03:31:32.081Z,2.73
2018-06-24T03:34:05.205Z,3.50
2018-06-24T03:36:38.158Z,2.17
2018-06-24T03:39:13.754Z,2.53
2018-06-24T03:41:46.820Z,2.10
2018-06-24T03:44:20.099Z,1.90
2018-06-24T03:46:53.233Z,2.53
2018-06-24T03:49:26.408Z,2.50
2018-06-24T03:52:00.640Z,2.43
2018-06-24T03:54:34.602Z,2.47
2018-06-24T03:57:13.902Z,3.40
2018-06-24T04:05:49.051Z,3.33
2018-06-24T04:08:33.055Z,3.30
2018-06-24T04:15:10.342Z,3.97
2018-06-24T04:17:44.135Z,5.47
2018-06-24T04:20:32.865Z,4.43
2018-06-24T04:23:06.590Z,3.47
2018-06-24T04:25:40.035Z,2.60
2018-06-24T04:28:14.035Z,4.60
2018-06-24T04:30:49.896Z,3.20
2018-06-24T04:33:23.627Z,3.17
2018-06-24T04:35:57.702Z,2.80
2018-06-24T04:38:31.418Z,3.33
2018-06-24T04:41:24.494Z,3.63
2018-06-24T04:43:58.424Z,3.00
2018-06-24T04:46:32.122Z,3.10
2018-06-24T04:49:05.766Z,3.60
2018-06-24T04:51:39.340Z,6.00
2018-06-24T04:54:13.137Z,2.70
2018-06-24T04:56:48.617Z,3.87
2018-06-24T04:59:23.383Z,3.37
2018-06-24T05:01:56.837Z,3.60
2018-06-24T05:04:30.164Z,3.00
2018-06-24T05:07:06.368Z,4.17
2018-06-24T05:09:41.558Z,4.50
2018-06-24T05:12:17.308Z,4.20
2018-06-24T05:14:53.270Z,4.63
2018-06-24T05:17:29.586Z,4.30
2018-06-24T05:20:12.324Z,3.53
2018-06-24T05:22:54.820Z,6.13
2018-06-24T05:25:36.216Z,3.00
2018-06-24T05:28:27.447Z,3.47
2018-06-24T05:34:00.132Z,3.33
2018-06-24T05:36:34.246Z,3.37
2018-06-24T05:39:09.148Z,3.40
2018-06-24T05:41:42.511Z,6.03
2018-06-24T05:44:16.167Z,7.30
2018-06-24T05:46:49.156Z,3.87
2018-06-24T05:49:22.865Z,6.13
2018-06-24T05:51:56.747Z,5.00
2018-06-24T05:54:30.981Z,4.40
2018-06-24T05:57:04.931Z,5.10
2018-06-24T05:59:40.878Z,5.23
2018-06-24T06:02:14.638Z,5.43
2018-06-24T06:04:48.522Z,6.30
2018-06-24T06:07:22.995Z,5.60
2018-06-24T06:09:56.692Z,6.63
2018-06-24T06:12:40.080Z,4.60
2018-06-24T06:15:14.701Z,3.50
2018-06-24T06:17:48.933Z,4.47
2018-06-24T06:20:22.964Z,3.37
2018-06-24T06:22:56.713Z,4.27
2018-06-24T06:25:31.124Z,6.67
2018-06-24T06:28:05.817Z,3.63
2018-06-24T06:30:39.073Z,3.63
2018-06-24T06:33:12.333Z,4.30
2018-06-24T06:35:46.232Z,5.30
2018-06-24T06:38:20.622Z,5.50
2018-06-24T06:40:54.049Z,4.27
2018-06-24T06:43:27.368Z,4.97
2018-06-24T06:46:00.612Z,4.67
2018-06-24T06:48:35.689Z,5.17
2018-06-24T06:51:10.851Z,3.67
2018-06-24T06:53:44.021Z,4.20
2018-06-24T06:56:17.233Z,7.27
2018-06-24T06:58:50.521Z,4.17
2018-06-24T07:01:23.945Z,4.87
2018-06-24T07:03:57.342Z,4.43
2018-06-24T07:06:30.710Z,5.33
2018-06-24T07:09:04.200Z,3.80
2018-06-24T07:11:38.046Z,3.50
2018-06-24T07:14:11.454Z,4.23
2018-06-24T07:16:44.545Z,5.10
2018-06-24T07:19:17.796Z,6.47
2018-06-24T07:21:52.589Z,6.23
2018-06-24T07:24:27.354Z,3.63
2018-06-24T07:27:00.524Z,3.93
2018-06-24T07:29:33.817Z,4.60
2018-06-24T07:32:07.224Z,4.17
2018-06-24T07:34:40.546Z,5.93
2018-06-24T07:37:14.131Z,8.47
2018-06-24T07:39:47.611Z,6.57
2018-06-24T07:42:20.705Z,5.03
2018-06-24T07:44:53.815Z,4.40
2018-06-24T15:35:29.194Z,14.60
2018-06-24T15:38:04.404Z,15.93
2018-06-24T15:40:37.829Z,12.57
2018-06-24T15:43:11.036Z,12.37
2018-06-24T15:45:44.247Z,13.50
2018-06-24T15:48:17.373Z,12.57
2018-06-24T15:50:50.467Z,13.87
2018-06-24T15:53:23.606Z,13.30
2018-06-24T15:55:57.561Z,11.80
2018-06-24T15:58:30.645Z,9.23
2018-06-24T16:01:03.815Z,10.93
2018-06-24T16:03:37.104Z,11.00
2018-06-24T16:06:10.532Z,9.10
2018-06-24T16:08:43.673Z,11.27
2018-06-24T16:11:16.759Z,10.60
2018-06-24T16:13:50.736Z,9.30
2018-06-24T16:16:23.917Z,11.00
2018-06-24T16:18:57.108Z,10.57
2018-06-24T16:21:30.331Z,10.77
2018-06-24T16:24:03.692Z,10.07
2018-06-24T16:26:36.912Z,8.13
2018-06-24T16:29:10.086Z,9.23
2018-06-24T16:31:43.124Z,9.90
2018-06-24T16:34:16.374Z,9.63
2018-06-24T16:36:49.533Z,9.13
2018-06-24T16:39:22.562Z,9.40
2018-06-24T16:41:55.873Z,10.17
2018-06-24T16:44:29.020Z,12.17
2018-06-24T16:47:02.079Z,9.53
2018-06-24T16:49:35.277Z,9.07
2018-06-24T16:52:08.522Z,11.03
2018-06-24T16:54:43.537Z,10.57
2018-06-24T16:57:17.546Z,9.60
2018-06-24T16:59:52.602Z,10.40
2018-06-24T17:02:26.899Z,9.47
2018-06-24T17:05:00.904Z,10.37
2018-06-24T17:07:34.050Z,8.07
2018-06-24T17:10:07.289Z,8.87
2018-06-24T17:12:40.534Z,8.30
2018-06-24T17:15:13.705Z,10.07
2018-06-24T17:17:47.027Z,9.77
2018-06-24T17:20:21.268Z,9.23
2018-06-24T17:22:54.662Z,8.73
2018-06-24T17:25:28.457Z,8.73
2018-06-24T17:28:01.740Z,8.07
2018-06-24T17:30:35.123Z,8.83
2018-06-24T17:33:08.162Z,7.00
2018-06-24T17:35:42.093Z,9.13
2018-06-24T17:38:16.734Z,6.27
2018-06-24T17:40:50.584Z,6.87
2018-06-24T17:43:23.954Z,5.73
2018-06-24T17:45:57.551Z,8.73
2018-06-24T17:48:30.845Z,7.67
2018-06-24T17:51:05.050Z,7.17
2018-06-24T17:53:39.365Z,6.47
2018-06-24T17:56:12.602Z,5.10
2018-06-24T17:58:46.083Z,5.20
2018-06-24T18:01:19.297Z,6.17
2018-06-24T18:03:59.208Z,7.00
2018-06-24T18:09:23.265Z,8.13
2018-06-24T18:12:06.652Z,6.93
2018-06-24T18:14:48.329Z,7.03
2018-06-24T18:17:31.776Z,7.50
2018-06-24T18:20:14.926Z,6.53
2018-06-24T18:22:57.204Z,5.87
2018-06-24T18:25:36.848Z,7.47
2018-06-24T18:28:21.542Z,6.20
2018-06-24T18:31:06.530Z,6.37
2018-06-24T18:33:41.021Z,5.53
2018-06-24T18:36:14.383Z,6.87
2018-06-24T18:38:47.783Z,5.50
2018-06-24T18:41:21.355Z,4.90
2018-06-24T18:43:54.879Z,7.87
2018-06-24T18:46:28.363Z,5.20
2018-06-24T18:49:03.262Z,5.93
2018-06-24T18:51:36.748Z,6.87
2018-06-24T18:54:16.099Z,5.27
2018-06-24T19:03:24.210Z,6.80
2018-06-24T19:05:59.733Z,4.47
2018-06-24T19:08:36.739Z,6.03
2018-06-24T19:11:13.363Z,5.83
2018-06-24T19:13:49.104Z,5.40
2018-06-24T19:16:23.243Z,4.83
2018-06-24T19:18:58.117Z,4.80
2018-06-24T19:21:33.368Z,4.53
2018-06-24T19:24:07.616Z,5.13
2018-06-24T19:26:41.520Z,6.97
2018-06-24T19:29:14.831Z,5.13
2018-06-24T19:31:48.716Z,6.23
2018-06-24T19:34:22.014Z,4.83
2018-06-24T19:36:55.610Z,5.90
2018-06-24T19:39:29.038Z,4.33
2018-06-24T19:42:02.450Z,5.97
2018-06-24T19:44:35.747Z,6.47
2018-06-24T19:47:09.200Z,5.73
2018-06-24T19:49:42.808Z,5.70
2018-06-24T19:52:17.675Z,5.37
2018-06-24T19:54:51.023Z,6.40
2018-06-24T19:57:24.425Z,5.87
2018-06-24T19:59:57.585Z,4.80
2018-06-24T20:02:31.784Z,5.00
2018-06-24T20:05:05.907Z,5.17
2018-06-24T20:07:39.490Z,5.57
2018-06-24T20:10:12.911Z,4.77
2018-06-24T20:12:46.255Z,4.43
2018-06-24T20:15:19.444Z,5.83
2018-06-24T20:17:52.683Z,6.27
2018-06-24T20:20:25.836Z,5.50
2018-06-24T20:22:59.230Z,4.50
2018-06-24T20:25:32.364Z,5.23
2018-06-24T20:28:05.471Z,7.43
2018-06-24T20:30:38.688Z,4.20
2018-06-24T20:33:14.198Z,4.83
2018-06-24T20:35:55.481Z,7.67
2018-06-24T20:38:28.732Z,4.90
2018-06-24T20:41:02.201Z,5.30
2018-06-24T20:43:35.392Z,4.83
2018-06-24T20:46:08.525Z,4.50
2018-06-24T20:48:41.758Z,4.27
2018-06-24T20:51:15.018Z,4.17
2018-06-24T20:53:48.519Z,3.93
2018-06-24T20:56:21.886Z,5.70
2018-06-24T20:59:00.075Z,4.50
2018-06-24T21:01:33.392Z,3.90
2018-06-24T21:04:07.359Z,4.70
2018-06-24T21:06:40.564Z,4.13
2018-06-24T21:09:14.198Z,9.50
2018-06-24T21:11:47.434Z,5.07
2018-06-24T21:14:23.574Z,3.63
2018-06-24T21:17:04.414Z,3.83
2018-06-24T21:19:37.652Z,4.23
2018-06-24T21:22:10.691Z,6.73
2018-06-24T21:24:43.819Z,3.97
2018-06-24T21:27:16.925Z,3.87
2018-06-24T21:29:50.320Z,3.47
2018-06-24T21:32:23.716Z,2.80
2018-06-24T21:34:56.839Z,4.27
2018-06-24T21:37:30.355Z,3.10
2018-06-24T21:40:03.596Z,3.13
2018-06-24T21:42:36.715Z,5.10
2018-06-24T21:45:10.285Z,3.97
2018-06-24T21:47:43.455Z,4.23
2018-06-24T21:50:17.109Z,2.80
2018-06-24T21:52:50.454Z,2.87
2018-06-24T21:55:23.907Z,3.33
2018-06-24T21:57:56.970Z,3.57
2018-06-24T22:00:30.390Z,2.73
2018-06-24T22:03:03.665Z,3.40
2018-06-24T22:05:36.745Z,3.67
2018-06-24T22:08:10.007Z,3.33
2018-06-24T22:10:43.033Z,3.90
2018-06-24T22:13:16.157Z,3.00
2018-06-24T22:15:49.535Z,4.10
2018-06-24T22:18:22.763Z,3.57
2018-06-24T22:20:55.851Z,3.00
2018-06-24T22:23:29.124Z,3.50
2018-06-24T22:26:02.444Z,5.43
2018-06-24T22:28:35.635Z,3.07
2018-06-24T22:31:08.845Z,3.40
2018-06-24T22:33:42.679Z,3.97
2018-06-24T22:38:53.409Z,4.10
2018-06-24T22:41:26.953Z,2.90
2018-06-24T22:44:00.112Z,3.43
2018-06-24T22:46:33.407Z,3.33
2018-06-24T22:49:06.646Z,4.53
2018-06-24T22:51:39.718Z,4.27
2018-06-24T22:54:12.737Z,5.60
2018-06-24T22:56:46.018Z,5.40
2018-06-24T22:59:27.928Z,3.67
2018-06-24T23:02:00.934Z,4.73
2018-06-24T23:04:34.002Z,4.03
2018-06-24T23:07:07.156Z,3.80
2018-06-24T23:09:40.323Z,4.07
2018-06-24T23:12:13.381Z,3.80
2018-06-24T23:18:04.108Z,3.57
2018-06-24T23:20:37.655Z,4.33
2018-06-24T23:24:05.724Z,3.53
2018-06-24T23:26:41.083Z,3.10
2018-06-24T23:41:09.018Z,3.67
2018-06-24T23:43:45.785Z,2.70
2018-06-24T23:46:21.131Z,2.97
2018-06-24T23:48:55.048Z,3.33
2018-06-24T23:51:29.227Z,4.90
2018-06-24T23:54:02.419Z,2.80
2018-06-24T23:56:35.573Z,3.40
2018-06-24T23:59:08.588Z,2.73
